createdAt,value
2016-11-21T00:01:08.911Z,0
2016-11-21T00:02:24.394Z,0
2016-11-21T00:03:40.962Z,0
2016-11-21T00:04:57.272Z,0
2016-11-21T00:06:13.194Z,0
2016-11-21T00:07:28.338Z,0
2016-11-21T00:08:44.201Z,0
2016-11-21T00:09:59.541Z,0
2016-11-21T00:11:15.435Z,0
2016-11-21T00:12:31.414Z,0
2016-11-21T00:13:46.487Z,0
2016-11-21T00:15:03.144Z,0
2016-11-21T00:16:19.077Z,0
2016-11-21T00:17:34.958Z,0
2016-11-21T00:18:51.563Z,0
2016-11-21T00:20:07.456Z,0
2016-11-21T00:21:23.827Z,0
2016-11-21T00:22:39.716Z,0
2016-11-21T00:23:55.072Z,0
2016-11-21T00:25:11.363Z,0
2016-11-21T00:26:27.384Z,0
2016-11-21T00:27:43.089Z,0
2016-11-21T00:28:56.773Z,0
2016-11-21T00:30:13.703Z,0
2016-11-21T00:31:28.391Z,0
2016-11-21T00:32:43.159Z,0
2016-11-21T00:33:56.887Z,0
2016-11-21T00:35:10.768Z,0
2016-11-21T00:36:22.885Z,0
2016-11-21T00:37:39.684Z,0
2016-11-21T00:38:55.640Z,0
2016-11-21T00:40:11.118Z,0
2016-11-21T00:41:25.902Z,0
2016-11-21T00:42:40.629Z,0
2016-11-21T00:43:56.672Z,0
2016-11-21T00:45:12.802Z,0
2016-11-21T00:46:28.112Z,0
2016-11-21T00:47:44.663Z,0
2016-11-21T00:48:59.282Z,0
2016-11-21T00:50:16.091Z,0
2016-11-21T00:51:30.771Z,0
2016-11-21T00:52:46.953Z,0
2016-11-21T00:54:02.098Z,0
2016-11-21T00:55:18.230Z,0
2016-11-21T00:56:34.530Z,0
2016-11-21T00:57:50.268Z,0
2016-11-21T00:59:06.236Z,0
2016-11-21T01:00:21.053Z,0
2016-11-21T01:01:36.182Z,0
2016-11-21T01:02:52.700Z,0
2016-11-21T01:04:07.899Z,0
2016-11-21T01:05:24.585Z,0
2016-11-21T01:06:38.315Z,0
2016-11-21T01:07:54.026Z,0
2016-11-21T01:09:09.255Z,0
2016-11-21T01:10:24.294Z,0
2016-11-21T01:11:40.283Z,0
2016-11-21T01:12:57.037Z,0
2016-11-21T01:14:12.526Z,0
2016-11-21T01:15:27.298Z,0
2016-11-21T01:16:43.463Z,0
2016-11-21T01:17:58.062Z,0
2016-11-21T01:19:13.512Z,0
2016-11-21T01:20:29.630Z,0
2016-11-21T01:21:46.047Z,0
2016-11-21T01:23:01.683Z,0
2016-11-21T01:24:16.414Z,0
2016-11-21T01:25:32.955Z,0
2016-11-21T01:26:47.721Z,0
2016-11-21T01:28:03.889Z,0
2016-11-21T01:29:20.570Z,0
2016-11-21T01:30:37.029Z,0
2016-11-21T01:31:53.351Z,0
2016-11-21T01:33:09.664Z,0
2016-11-21T01:34:24.954Z,0
2016-11-21T01:35:40.296Z,0
2016-11-21T01:36:53.957Z,0
2016-11-21T01:38:10.530Z,0
2016-11-21T01:39:27.285Z,0
2016-11-21T01:40:41.740Z,0
2016-11-21T01:41:58.003Z,0
2016-11-21T01:43:14.060Z,0
2016-11-21T01:44:31.021Z,0
2016-11-21T01:45:45.841Z,0
2016-11-21T01:47:02.710Z,0
2016-11-21T01:48:18.823Z,0
2016-11-21T01:49:35.100Z,0
2016-11-21T01:50:50.821Z,0
2016-11-21T01:52:07.732Z,0
2016-11-21T01:53:22.574Z,0
2016-11-21T01:54:38.050Z,0
2016-11-21T01:55:53.919Z,0
2016-11-21T01:57:10.221Z,0
2016-11-21T01:58:26.086Z,0
2016-11-21T01:59:40.519Z,0
2016-11-21T02:00:56.844Z,0
2016-11-21T02:02:13.202Z,0
2016-11-21T02:03:29.107Z,0
2016-11-21T02:04:43.096Z,0
2016-11-21T02:05:58.725Z,0
2016-11-21T02:07:14.830Z,0
2016-11-21T02:08:31.673Z,0
2016-11-21T02:09:46.830Z,0
2016-11-21T02:11:02.703Z,0
2016-11-21T02:12:18.804Z,0
2016-11-21T02:13:35.063Z,0
2016-11-21T02:14:51.441Z,0
2016-11-21T02:16:06.296Z,0
2016-11-21T02:17:20.493Z,0
2016-11-21T02:18:37.002Z,0
2016-11-21T02:19:53.277Z,0
2016-11-21T02:21:09.341Z,0
2016-11-21T02:22:25.478Z,0
2016-11-21T02:23:38.704Z,0
2016-11-21T02:24:54.135Z,0
2016-11-21T02:26:07.609Z,0
2016-11-21T02:27:24.163Z,0
2016-11-21T02:28:38.976Z,0
2016-11-21T02:29:53.643Z,0
2016-11-21T02:31:10.192Z,0
2016-11-21T02:32:25.726Z,0
2016-11-21T02:33:40.497Z,0
2016-11-21T02:34:56.978Z,0
2016-11-21T02:36:13.270Z,0
2016-11-21T02:37:29.622Z,0
2016-11-21T02:38:44.710Z,0
2016-11-21T02:39:59.806Z,0
2016-11-21T02:41:15.972Z,0
2016-11-21T02:42:31.050Z,0
2016-11-21T02:43:45.551Z,0
2016-11-21T02:45:00.091Z,0
2016-11-21T02:46:14.075Z,0
2016-11-21T02:47:29.574Z,0
2016-11-21T02:48:46.739Z,0
2016-11-21T02:50:01.414Z,0
2016-11-21T02:51:16.424Z,0
2016-11-21T02:52:28.011Z,0
2016-11-21T02:53:44.065Z,0
2016-11-21T02:54:59.960Z,0
2016-11-21T02:56:15.858Z,0
2016-11-21T02:57:32.608Z,0
2016-11-21T02:58:47.965Z,0
2016-11-21T03:00:04.111Z,0
2016-11-21T03:01:18.693Z,0
2016-11-21T03:02:35.121Z,0
2016-11-21T03:03:49.786Z,0
2016-11-21T03:05:06.003Z,0
2016-11-21T03:06:21.198Z,0
2016-11-21T03:07:37.673Z,0
2016-11-21T03:08:52.052Z,0
2016-11-21T03:10:07.150Z,0
2016-11-21T03:11:23.676Z,0
2016-11-21T03:12:39.543Z,0
2016-11-21T03:13:56.066Z,0
2016-11-21T03:15:11.905Z,0
2016-11-21T03:16:26.256Z,0
2016-11-21T03:17:41.989Z,0
2016-11-21T03:18:55.548Z,0
2016-11-21T03:20:12.264Z,0
2016-11-21T03:21:26.537Z,0
2016-11-21T03:22:40.975Z,0
2016-11-21T03:23:54.242Z,0
2016-11-21T03:25:08.905Z,0
2016-11-21T03:26:22.131Z,0
2016-11-21T03:27:38.253Z,0
2016-11-21T03:28:53.478Z,0
2016-11-21T03:30:08.743Z,0
2016-11-21T03:31:22.211Z,0
2016-11-21T03:32:36.870Z,0
2016-11-21T03:33:53.122Z,0
2016-11-21T03:35:09.273Z,0
2016-11-21T03:36:20.851Z,0
2016-11-21T03:37:37.545Z,0
2016-11-21T03:38:53.575Z,0
2016-11-21T03:40:10.263Z,0
2016-11-21T03:41:24.887Z,0
2016-11-21T03:42:40.367Z,0
2016-11-21T03:43:57.366Z,0
2016-11-21T03:45:11.666Z,0
2016-11-21T03:46:27.783Z,0
2016-11-21T03:47:44.511Z,0
2016-11-21T03:48:59.416Z,0
2016-11-21T03:50:13.845Z,0
2016-11-21T03:51:28.885Z,0
2016-11-21T03:52:45.293Z,0
2016-11-21T03:54:00.612Z,0
2016-11-21T03:55:17.745Z,0
2016-11-21T03:56:32.057Z,0
2016-11-21T03:57:46.993Z,0
2016-11-21T03:59:02.871Z,0
2016-11-21T04:00:19.019Z,0
2016-11-21T04:01:36.083Z,0
2016-11-21T04:02:49.853Z,0
2016-11-21T04:04:05.726Z,0
2016-11-21T04:05:22.069Z,0
2016-11-21T04:06:38.370Z,0
2016-11-21T04:07:55.350Z,0
2016-11-21T04:09:11.369Z,0
2016-11-21T04:10:27.255Z,0
2016-11-21T04:11:42.782Z,0
2016-11-21T04:12:59.480Z,0
2016-11-21T04:14:13.945Z,0
2016-11-21T04:15:30.431Z,0
2016-11-21T04:16:45.191Z,0
2016-11-21T04:18:01.792Z,0
2016-11-21T04:19:15.455Z,0
2016-11-21T04:20:31.915Z,0
2016-11-21T04:21:48.358Z,0
2016-11-21T04:23:04.227Z,0
2016-11-21T04:24:20.146Z,0
2016-11-21T04:25:36.821Z,0
2016-11-21T04:26:50.178Z,0
2016-11-21T04:28:02.085Z,0
2016-11-21T04:29:15.378Z,0
2016-11-21T04:30:31.010Z,0
2016-11-21T04:31:44.401Z,0
2016-11-21T04:32:58.168Z,0
2016-11-21T04:34:12.627Z,0
2016-11-21T04:35:28.966Z,0
2016-11-21T04:36:45.346Z,0
2016-11-21T04:38:00.864Z,0
2016-11-21T04:39:17.777Z,0
2016-11-21T04:40:34.287Z,0
2016-11-21T04:41:47.855Z,0
2016-11-21T04:43:03.995Z,0
2016-11-21T04:44:17.216Z,0
2016-11-21T04:45:31.994Z,0
2016-11-21T04:46:46.255Z,0
2016-11-21T04:48:02.384Z,0
2016-11-21T04:49:18.053Z,0
2016-11-21T04:50:34.063Z,0
2016-11-21T04:51:50.100Z,0
2016-11-21T04:53:06.472Z,0
2016-11-21T04:54:22.960Z,0
2016-11-21T04:55:39.653Z,0
2016-11-21T04:56:52.807Z,0
2016-11-21T04:58:08.925Z,0
2016-11-21T04:59:23.580Z,0
2016-11-21T05:00:39.464Z,0
2016-11-21T05:01:55.590Z,0
2016-11-21T05:03:11.850Z,0
2016-11-21T05:04:28.227Z,0
2016-11-21T05:05:43.065Z,0
2016-11-21T05:06:58.756Z,0
2016-11-21T05:08:13.605Z,0
2016-11-21T05:09:30.355Z,0
2016-11-21T05:10:46.979Z,0
2016-11-21T05:12:03.289Z,0
2016-11-21T05:13:18.399Z,0
2016-11-21T05:14:35.257Z,0
2016-11-21T05:15:51.627Z,0
2016-11-21T05:17:07.988Z,0
2016-11-21T05:18:24.774Z,0
2016-11-21T05:19:41.125Z,0
2016-11-21T05:20:58.078Z,0
2016-11-21T05:22:11.479Z,0
2016-11-21T05:23:27.050Z,0
2016-11-21T05:24:42.942Z,0
2016-11-21T05:25:59.582Z,0
2016-11-21T05:27:15.556Z,0
2016-11-21T05:28:29.339Z,0
2016-11-21T05:29:45.400Z,0
2016-11-21T05:31:00.531Z,0
2016-11-21T05:32:15.184Z,0
2016-11-21T05:33:29.597Z,0
2016-11-21T05:34:42.816Z,0
2016-11-21T05:35:58.193Z,0
2016-11-21T05:37:14.230Z,0
2016-11-21T05:38:30.818Z,0
2016-11-21T05:39:45.890Z,0
2016-11-21T05:41:01.099Z,0
2016-11-21T05:42:17.268Z,0
2016-11-21T05:43:31.467Z,0
2016-11-21T05:44:47.174Z,0
2016-11-21T05:46:00.413Z,0
2016-11-21T05:47:16.762Z,0
2016-11-21T05:48:31.383Z,0
2016-11-21T05:49:47.670Z,0
2016-11-21T05:51:01.189Z,0
2016-11-21T05:52:17.628Z,0
2016-11-21T05:53:32.290Z,0
2016-11-21T05:54:49.382Z,0
2016-11-21T05:56:04.111Z,0
2016-11-21T05:57:18.380Z,0
2016-11-21T05:58:33.079Z,0
2016-11-21T05:59:49.444Z,0
2016-11-21T06:01:04.384Z,0
2016-11-21T06:02:20.740Z,0
2016-11-21T06:03:36.893Z,0
2016-11-21T06:04:49.797Z,0
2016-11-21T06:06:06.165Z,0
2016-11-21T06:07:20.847Z,0
2016-11-21T06:08:34.253Z,0
2016-11-21T06:09:49.922Z,0
2016-11-21T06:11:06.072Z,0
2016-11-21T06:12:20.764Z,0
2016-11-21T06:13:37.031Z,0
2016-11-21T06:14:50.750Z,0
2016-11-21T06:16:05.449Z,0
2016-11-21T06:17:20.538Z,0
2016-11-21T06:18:35.255Z,0
2016-11-21T06:19:52.097Z,0
2016-11-21T06:21:08.301Z,0
2016-11-21T06:22:23.785Z,0
2016-11-21T06:23:38.370Z,0
2016-11-21T06:24:53.353Z,0
2016-11-21T06:26:09.540Z,0
2016-11-21T06:27:23.878Z,0
2016-11-21T06:28:39.350Z,0
2016-11-21T06:29:55.851Z,0
2016-11-21T06:31:10.802Z,0
2016-11-21T06:32:27.094Z,0
2016-11-21T06:33:41.770Z,0
2016-11-21T06:34:57.748Z,4
2016-11-21T06:36:13.845Z,4
2016-11-21T06:37:28.557Z,4
2016-11-21T06:38:44.744Z,4
2016-11-21T06:39:58.979Z,8
2016-11-21T06:41:13.570Z,12
2016-11-21T06:42:30.048Z,16
2016-11-21T06:43:45.961Z,20
2016-11-21T06:45:02.933Z,32
2016-11-21T06:46:19.408Z,36
2016-11-21T06:47:35.369Z,44
2016-11-21T06:48:51.259Z,48
2016-11-21T06:50:06.114Z,56
2016-11-21T06:51:21.510Z,60
2016-11-21T06:52:38.380Z,68
2016-11-21T06:53:54.254Z,72
2016-11-21T06:55:09.085Z,72
2016-11-21T06:56:25.908Z,80
2016-11-21T06:57:42.019Z,100
2016-11-21T06:58:57.265Z,112
2016-11-21T07:00:13.709Z,120
2016-11-21T07:01:26.526Z,116
2016-11-21T07:02:42.045Z,116
2016-11-21T07:03:58.974Z,104
2016-11-21T07:05:15.518Z,96
2016-11-21T07:06:31.989Z,96
2016-11-21T07:07:46.305Z,104
2016-11-21T07:08:59.762Z,116
2016-11-21T07:10:14.509Z,132
2016-11-21T07:11:28.933Z,152
2016-11-21T07:12:44.710Z,172
2016-11-21T07:13:59.378Z,204
2016-11-21T07:15:13.853Z,232
2016-11-21T07:16:27.668Z,260
2016-11-21T07:17:43.395Z,264
2016-11-21T07:18:59.835Z,240
2016-11-21T07:20:13.564Z,256
2016-11-21T07:21:29.493Z,300
2016-11-21T07:22:45.718Z,320
2016-11-21T07:24:02.018Z,324
2016-11-21T07:25:16.505Z,312
2016-11-21T07:26:31.166Z,296
2016-11-21T07:27:47.460Z,280
2016-11-21T07:29:03.674Z,280
2016-11-21T07:30:18.466Z,292
2016-11-21T07:31:31.834Z,316
2016-11-21T07:32:45.564Z,360
2016-11-21T07:34:00.449Z,428
2016-11-21T07:35:15.141Z,460
2016-11-21T07:36:31.662Z,504
2016-11-21T07:37:48.352Z,576
2016-11-21T07:39:03.442Z,624
2016-11-21T07:40:17.077Z,652
2016-11-21T07:41:33.555Z,628
2016-11-21T07:42:49.853Z,544
2016-11-21T07:44:02.974Z,500
2016-11-21T07:45:18.731Z,556
2016-11-21T07:46:35.501Z,628
2016-11-21T07:47:50.841Z,776
2016-11-21T07:49:05.616Z,936
2016-11-21T07:50:20.760Z,1020
2016-11-21T07:51:37.062Z,1064
2016-11-21T07:52:53.788Z,1052
2016-11-21T07:54:10.572Z,1064
2016-11-21T07:55:26.611Z,1152
2016-11-21T07:56:43.467Z,1244
2016-11-21T07:57:57.488Z,1380
2016-11-21T07:59:13.682Z,1516
2016-11-21T08:00:29.955Z,1448
2016-11-21T08:01:45.059Z,1596
2016-11-21T08:03:01.342Z,1784
2016-11-21T08:04:17.218Z,1928
2016-11-21T08:05:32.461Z,1944
2016-11-21T08:06:47.592Z,1836
2016-11-21T08:08:02.391Z,1776
2016-11-21T08:09:18.008Z,1972
2016-11-21T08:10:30.994Z,2168
2016-11-21T08:11:47.726Z,2180
2016-11-21T08:13:02.587Z,1972
2016-11-21T08:14:18.980Z,1712
2016-11-21T08:15:33.437Z,1580
2016-11-21T08:16:49.726Z,1496
2016-11-21T08:18:05.822Z,1492
2016-11-21T08:19:22.813Z,1500
2016-11-21T08:20:39.083Z,1524
2016-11-21T08:21:55.057Z,1716
2016-11-21T08:23:11.694Z,1824
2016-11-21T08:24:27.167Z,1876
2016-11-21T08:25:42.647Z,1900
2016-11-21T08:26:56.932Z,1868
2016-11-21T08:28:10.590Z,1776
2016-11-21T08:29:27.193Z,1688
2016-11-21T08:30:41.965Z,1652
2016-11-21T08:31:56.578Z,1676
2016-11-21T08:33:12.931Z,1724
2016-11-21T08:34:29.828Z,1840
2016-11-21T08:35:46.218Z,2064
2016-11-21T08:37:02.912Z,2316
2016-11-21T08:38:18.969Z,2540
2016-11-21T08:39:34.190Z,2636
2016-11-21T08:40:49.244Z,2348
2016-11-21T08:42:06.021Z,1804
2016-11-21T08:43:20.612Z,1396
2016-11-21T08:44:35.481Z,1328
2016-11-21T08:45:51.818Z,1320
2016-11-21T08:47:07.778Z,1376
2016-11-21T08:48:22.496Z,1316
2016-11-21T08:49:38.831Z,1248
2016-11-21T08:50:53.580Z,1268
2016-11-21T08:52:09.932Z,1368
2016-11-21T08:53:24.803Z,1480
2016-11-21T08:54:39.614Z,1576
2016-11-21T08:55:56.181Z,1908
2016-11-21T08:57:11.080Z,1864
2016-11-21T08:58:28.016Z,1776
2016-11-21T08:59:44.703Z,1636
2016-11-21T09:00:57.942Z,1788
2016-11-21T09:02:14.387Z,1736
2016-11-21T09:03:29.593Z,1756
2016-11-21T09:04:46.001Z,1772
2016-11-21T09:06:02.744Z,1956
2016-11-21T09:07:19.048Z,2128
2016-11-21T09:08:35.593Z,2184
2016-11-21T09:09:49.873Z,2372
2016-11-21T09:11:05.059Z,2376
2016-11-21T09:12:21.196Z,2160
2016-11-21T09:13:37.178Z,2120
2016-11-21T09:14:53.313Z,2172
2016-11-21T09:16:07.254Z,2176
2016-11-21T09:17:23.956Z,2236
2016-11-21T09:18:40.476Z,2344
2016-11-21T09:19:55.550Z,2652
2016-11-21T09:21:11.183Z,2992
2016-11-21T09:22:27.983Z,3348
2016-11-21T09:23:42.649Z,3612
2016-11-21T09:24:57.663Z,3528
2016-11-21T09:26:14.214Z,3408
2016-11-21T09:27:29.310Z,3332
2016-11-21T09:28:44.073Z,3384
2016-11-21T09:29:58.771Z,3372
2016-11-21T09:31:13.289Z,3416
2016-11-21T09:32:27.730Z,3528
2016-11-21T09:33:41.501Z,3504
2016-11-21T09:34:53.538Z,3384
2016-11-21T09:36:10.423Z,3308
2016-11-21T09:37:24.153Z,3216
2016-11-21T09:38:39.422Z,2976
2016-11-21T09:39:56.502Z,2876
2016-11-21T09:41:13.494Z,2988
2016-11-21T09:42:29.540Z,2944
2016-11-21T09:43:46.235Z,2540
2016-11-21T09:45:03.149Z,2304
2016-11-21T09:46:20.220Z,2156
2016-11-21T09:47:35.051Z,2232
2016-11-21T09:48:49.939Z,2120
2016-11-21T09:50:05.955Z,2196
2016-11-21T09:51:21.831Z,2540
2016-11-21T09:52:38.383Z,2532
2016-11-21T09:53:51.883Z,2596
2016-11-21T09:55:07.029Z,2664
2016-11-21T09:56:23.161Z,2888
2016-11-21T09:57:39.780Z,2860
2016-11-21T09:58:56.181Z,2892
2016-11-21T10:00:08.960Z,2408
2016-11-21T10:01:23.323Z,2416
2016-11-21T10:02:39.825Z,2588
2016-11-21T10:03:55.874Z,2388
2016-11-21T10:05:11.101Z,2492
2016-11-21T10:06:27.145Z,2780
2016-11-21T10:07:43.890Z,3784
2016-11-21T10:09:00.696Z,4512
2016-11-21T10:10:16.779Z,5092
2016-11-21T10:11:31.264Z,4588
2016-11-21T10:12:47.163Z,3292
2016-11-21T10:14:02.027Z,2652
2016-11-21T10:15:17.939Z,2112
2016-11-21T10:16:34.508Z,1628
2016-11-21T10:17:49.347Z,1508
2016-11-21T10:19:03.609Z,1916
2016-11-21T10:20:16.846Z,1540
2016-11-21T10:21:31.154Z,1408
2016-11-21T10:22:45.858Z,1512
2016-11-21T10:24:02.682Z,1944
2016-11-21T10:25:19.006Z,2172
2016-11-21T10:26:35.865Z,1736
2016-11-21T10:27:49.412Z,1648
2016-11-21T10:29:02.635Z,1820
2016-11-21T10:30:17.247Z,1692
2016-11-21T10:31:33.995Z,1604
2016-11-21T10:32:47.525Z,1620
2016-11-21T10:34:04.673Z,1744
2016-11-21T10:35:21.036Z,1632
2016-11-21T10:36:37.775Z,2084
2016-11-21T10:37:54.104Z,1968
2016-11-21T10:39:09.195Z,2360
2016-11-21T10:40:22.598Z,2316
2016-11-21T10:41:37.534Z,2164
2016-11-21T10:42:52.419Z,2184
2016-11-21T10:44:08.609Z,2280
2016-11-21T10:45:25.026Z,2276
2016-11-21T10:46:39.912Z,2240
2016-11-21T10:47:56.218Z,2240
2016-11-21T10:49:11.201Z,2300
2016-11-21T10:50:25.625Z,2272
2016-11-21T10:51:41.781Z,2636
2016-11-21T10:52:58.311Z,2664
2016-11-21T10:54:14.610Z,2796
2016-11-21T10:55:29.566Z,2692
2016-11-21T10:56:44.603Z,2740
2016-11-21T10:57:59.311Z,2984
2016-11-21T10:59:15.673Z,3068
2016-11-21T11:00:31.061Z,3336
2016-11-21T11:01:46.386Z,3600
2016-11-21T11:03:02.428Z,4252
2016-11-21T11:04:18.490Z,5016
2016-11-21T11:05:33.439Z,5284
2016-11-21T11:06:49.828Z,5204
2016-11-21T11:08:05.957Z,5728
2016-11-21T11:09:22.324Z,6156
2016-11-21T11:10:38.594Z,6144
2016-11-21T11:11:54.973Z,5244
2016-11-21T11:13:10.979Z,4564
2016-11-21T11:14:27.197Z,4048
2016-11-21T11:15:43.644Z,3504
2016-11-21T11:16:59.779Z,3432
2016-11-21T11:18:14.729Z,3420
2016-11-21T11:19:27.724Z,3508
2016-11-21T11:20:43.720Z,3588
2016-11-21T11:22:00.120Z,3860
2016-11-21T11:23:15.854Z,3812
2016-11-21T11:24:32.256Z,4092
2016-11-21T11:25:45.233Z,4340
2016-11-21T11:26:59.753Z,4372
2016-11-21T11:28:16.140Z,4392
2016-11-21T11:29:29.190Z,3832
2016-11-21T11:30:45.358Z,3704
2016-11-21T11:32:02.029Z,3452
2016-11-21T11:33:16.508Z,3192
2016-11-21T11:34:33.300Z,3028
2016-11-21T11:35:49.365Z,2836
2016-11-21T11:37:05.260Z,2692
2016-11-21T11:38:22.309Z,2772
2016-11-21T11:39:39.046Z,2852
2016-11-21T11:40:53.208Z,2828
2016-11-21T11:42:09.971Z,2836
2016-11-21T11:43:26.284Z,3184
2016-11-21T11:44:39.329Z,3416
2016-11-21T11:45:55.298Z,3068
2016-11-21T11:47:11.421Z,3024
2016-11-21T11:48:26.500Z,2764
2016-11-21T11:49:41.573Z,2608
2016-11-21T11:50:56.934Z,2504
2016-11-21T11:52:13.137Z,2424
2016-11-21T11:53:27.444Z,2316
2016-11-21T11:54:41.177Z,2132
2016-11-21T11:55:57.796Z,2024
2016-11-21T11:57:13.997Z,2060
2016-11-21T11:58:29.279Z,2000
2016-11-21T11:59:45.757Z,1940
2016-11-21T12:01:00.432Z,2116
2016-11-21T12:02:16.973Z,2256
2016-11-21T12:03:33.131Z,2400
2016-11-21T12:04:48.092Z,2420
2016-11-21T12:06:04.585Z,2348
2016-11-21T12:07:20.800Z,2316
2016-11-21T12:08:35.665Z,2340
2016-11-21T12:09:49.667Z,2368
2016-11-21T12:11:05.525Z,2352
2016-11-21T12:12:21.840Z,2244
2016-11-21T12:13:35.492Z,2144
2016-11-21T12:14:50.178Z,2156
2016-11-21T12:16:04.861Z,2180
2016-11-21T12:17:20.967Z,2132
2016-11-21T12:18:37.409Z,2136
2016-11-21T12:19:53.734Z,2192
2016-11-21T12:21:08.601Z,2348
2016-11-21T12:22:20.313Z,2608
2016-11-21T12:23:36.725Z,2968
2016-11-21T12:24:51.778Z,3128
2016-11-21T12:26:08.137Z,3272
2016-11-21T12:27:22.680Z,3204
2016-11-21T12:28:37.312Z,3024
2016-11-21T12:29:53.919Z,2940
2016-11-21T12:31:10.222Z,2924
2016-11-21T12:32:25.627Z,3084
2016-11-21T12:33:42.759Z,3336
2016-11-21T12:34:58.543Z,3644
2016-11-21T12:36:13.407Z,3568
2016-11-21T12:37:29.963Z,3424
2016-11-21T12:38:44.885Z,3368
2016-11-21T12:40:01.035Z,3416
2016-11-21T12:41:16.974Z,3472
2016-11-21T12:42:32.994Z,3312
2016-11-21T12:43:47.422Z,2960
2016-11-21T12:45:02.096Z,2584
2016-11-21T12:46:18.009Z,2504
2016-11-21T12:47:34.240Z,2724
2016-11-21T12:48:50.981Z,2736
2016-11-21T12:50:07.549Z,2868
2016-11-21T12:51:23.679Z,3112
2016-11-21T12:52:39.015Z,3504
2016-11-21T12:53:54.343Z,3964
2016-11-21T12:55:09.096Z,4164
2016-11-21T12:56:23.139Z,4012
2016-11-21T12:57:37.956Z,3916
2016-11-21T12:58:52.263Z,3636
2016-11-21T13:00:08.550Z,3656
2016-11-21T13:01:25.408Z,3864
2016-11-21T13:02:41.529Z,3976
2016-11-21T13:03:56.660Z,4124
2016-11-21T13:05:11.907Z,4260
2016-11-21T13:06:27.580Z,4368
2016-11-21T13:07:43.907Z,4388
2016-11-21T13:09:01.016Z,4316
2016-11-21T13:10:16.623Z,4200
2016-11-21T13:11:33.359Z,4028
2016-11-21T13:12:48.907Z,3840
2016-11-21T13:14:05.071Z,3688
2016-11-21T13:15:19.916Z,3516
2016-11-21T13:16:36.692Z,3348
2016-11-21T13:17:53.237Z,3224
2016-11-21T13:19:08.181Z,3124
2016-11-21T13:20:23.592Z,2996
2016-11-21T13:21:36.795Z,2940
2016-11-21T13:22:49.635Z,3036
2016-11-21T13:24:04.883Z,3264
2016-11-21T13:25:21.436Z,3732
2016-11-21T13:26:37.561Z,4232
2016-11-21T13:27:53.038Z,4392
2016-11-21T13:29:06.827Z,4240
2016-11-21T13:30:21.416Z,3924
2016-11-21T13:31:38.006Z,3508
2016-11-21T13:32:54.113Z,3156
2016-11-21T13:34:09.014Z,2920
2016-11-21T13:35:24.354Z,2788
2016-11-21T13:36:39.200Z,2840
2016-11-21T13:37:53.906Z,2928
2016-11-21T13:39:07.301Z,2904
2016-11-21T13:40:23.476Z,2872
2016-11-21T13:41:36.437Z,2884
2016-11-21T13:42:53.113Z,2856
2016-11-21T13:44:07.551Z,2644
2016-11-21T13:45:23.425Z,2456
2016-11-21T13:46:37.136Z,2348
2016-11-21T13:47:52.284Z,2148
2016-11-21T13:49:08.836Z,1852
2016-11-21T13:50:23.558Z,1560
2016-11-21T13:51:39.647Z,1428
2016-11-21T13:52:54.778Z,1364
2016-11-21T13:54:10.266Z,1296
2016-11-21T13:55:24.792Z,1200
2016-11-21T13:56:39.741Z,1152
2016-11-21T13:57:56.330Z,1184
2016-11-21T13:59:11.810Z,1240
2016-11-21T14:00:28.513Z,1260
2016-11-21T14:01:44.556Z,1356
2016-11-21T14:02:58.145Z,1372
2016-11-21T14:04:14.090Z,1240
2016-11-21T14:05:28.677Z,1224
2016-11-21T14:06:41.978Z,1216
2016-11-21T14:07:57.927Z,1072
2016-11-21T14:09:12.200Z,1024
2016-11-21T14:10:26.738Z,1160
2016-11-21T14:11:41.995Z,1256
2016-11-21T14:12:57.289Z,1152
2016-11-21T14:14:12.927Z,956
2016-11-21T14:15:26.914Z,920
2016-11-21T14:16:43.638Z,988
2016-11-21T14:17:59.175Z,1036
2016-11-21T14:19:15.945Z,1028
2016-11-21T14:20:31.046Z,1008
2016-11-21T14:21:46.139Z,944
2016-11-21T14:23:00.993Z,872
2016-11-21T14:24:14.902Z,868
2016-11-21T14:25:31.996Z,848
2016-11-21T14:26:46.640Z,832
2016-11-21T14:28:03.593Z,848
2016-11-21T14:29:19.303Z,864
2016-11-21T14:30:32.305Z,808
2016-11-21T14:31:48.841Z,804
2016-11-21T14:33:04.086Z,752
2016-11-21T14:34:20.268Z,748
2016-11-21T14:35:36.428Z,776
2016-11-21T14:36:52.763Z,728
2016-11-21T14:38:09.143Z,648
2016-11-21T14:39:25.863Z,628
2016-11-21T14:40:42.565Z,612
2016-11-21T14:41:59.542Z,512
2016-11-21T14:43:15.918Z,460
2016-11-21T14:44:32.097Z,468
2016-11-21T14:45:48.587Z,480
2016-11-21T14:47:02.141Z,420
2016-11-21T14:48:13.676Z,396
2016-11-21T14:49:30.239Z,356
2016-11-21T14:50:46.918Z,396
2016-11-21T14:52:03.772Z,440
2016-11-21T14:53:18.692Z,504
2016-11-21T14:54:34.825Z,628
2016-11-21T14:55:49.651Z,652
2016-11-21T14:57:04.563Z,556
2016-11-21T14:58:19.339Z,524
2016-11-21T14:59:35.742Z,540
2016-11-21T15:00:50.905Z,444
2016-11-21T15:02:07.000Z,396
2016-11-21T15:03:21.325Z,448
2016-11-21T15:04:37.644Z,388
2016-11-21T15:05:54.210Z,412
2016-11-21T15:07:09.213Z,412
2016-11-21T15:08:22.935Z,376
2016-11-21T15:09:39.231Z,352
2016-11-21T15:10:56.040Z,268
2016-11-21T15:12:11.831Z,220
2016-11-21T15:13:27.052Z,252
2016-11-21T15:14:43.545Z,248
2016-11-21T15:15:58.242Z,208
2016-11-21T15:17:13.603Z,204
2016-11-21T15:18:29.090Z,164
2016-11-21T15:19:43.541Z,132
2016-11-21T15:20:59.692Z,124
2016-11-21T15:22:14.115Z,100
2016-11-21T15:23:30.782Z,76
2016-11-21T15:24:46.282Z,72
2016-11-21T15:26:03.255Z,60
2016-11-21T15:27:19.332Z,64
2016-11-21T15:28:35.847Z,48
2016-11-21T15:29:50.516Z,40
2016-11-21T15:31:06.988Z,36
2016-11-21T15:32:23.375Z,32
2016-11-21T15:33:38.218Z,28
2016-11-21T15:34:53.226Z,24
2016-11-21T15:36:09.780Z,20
2016-11-21T15:37:25.118Z,20
2016-11-21T15:38:42.272Z,20
2016-11-21T15:39:58.946Z,16
2016-11-21T15:41:12.486Z,16
2016-11-21T15:42:27.241Z,12
2016-11-21T15:43:43.832Z,8
2016-11-21T15:44:58.147Z,12
2016-11-21T15:46:12.918Z,12
2016-11-21T15:47:29.096Z,8
2016-11-21T15:48:45.606Z,8
2016-11-21T15:50:00.806Z,4
2016-11-21T15:51:17.478Z,4
2016-11-21T15:52:31.810Z,4
2016-11-21T15:53:47.066Z,4
2016-11-21T15:55:01.988Z,0
2016-11-21T15:56:17.354Z,4
2016-11-21T15:57:33.606Z,28
2016-11-21T15:58:48.542Z,28
2016-11-21T16:00:05.096Z,28
2016-11-21T16:01:20.115Z,28
2016-11-21T16:02:36.054Z,28
2016-11-21T16:03:50.933Z,28
2016-11-21T16:05:07.342Z,28
2016-11-21T16:06:23.769Z,28
2016-11-21T16:07:40.701Z,28
2016-11-21T16:08:57.280Z,28
2016-11-21T16:10:10.107Z,24
2016-11-21T16:11:25.041Z,28
2016-11-21T16:12:40.029Z,28
2016-11-21T16:13:54.707Z,28
2016-11-21T16:15:10.272Z,28
2016-11-21T16:16:26.371Z,24
2016-11-21T16:17:42.668Z,28
2016-11-21T16:18:59.299Z,28
2016-11-21T16:20:15.442Z,28
2016-11-21T16:21:30.768Z,24
2016-11-21T16:22:47.330Z,28
2016-11-21T16:24:02.004Z,24
2016-11-21T16:25:17.331Z,28
2016-11-21T16:26:32.295Z,24
2016-11-21T16:27:48.025Z,28
2016-11-21T16:29:03.334Z,28
2016-11-21T16:30:18.387Z,28
2016-11-21T16:31:34.696Z,28
2016-11-21T16:32:49.782Z,24
2016-11-21T16:34:04.206Z,28
2016-11-21T16:35:19.908Z,24
2016-11-21T16:36:33.434Z,28
2016-11-21T16:37:50.274Z,28
2016-11-21T16:39:07.154Z,28
2016-11-21T16:40:23.794Z,28
2016-11-21T16:41:38.224Z,28
2016-11-21T16:42:54.550Z,28
2016-11-21T16:44:10.638Z,28
2016-11-21T16:45:22.599Z,24
2016-11-21T16:46:36.265Z,24
2016-11-21T16:47:51.123Z,28
2016-11-21T16:49:06.141Z,28
2016-11-21T16:50:21.210Z,24
2016-11-21T16:51:37.217Z,28
2016-11-21T16:52:50.398Z,28
2016-11-21T16:54:05.757Z,24
2016-11-21T16:55:22.238Z,24
2016-11-21T16:56:38.531Z,28
2016-11-21T16:57:54.008Z,28
2016-11-21T16:59:10.738Z,28
2016-11-21T17:00:27.191Z,28
2016-11-21T17:01:42.466Z,28
2016-11-21T17:02:57.773Z,28
2016-11-21T17:04:12.529Z,28
2016-11-21T17:05:29.389Z,28
2016-11-21T17:06:46.519Z,28
2016-11-21T17:08:01.757Z,28
2016-11-21T17:09:18.120Z,28
2016-11-21T17:10:34.577Z,28
2016-11-21T17:11:50.924Z,28
2016-11-21T17:13:05.360Z,28
2016-11-21T17:14:21.687Z,28
2016-11-21T17:15:37.814Z,28
2016-11-21T17:16:53.859Z,28
2016-11-21T17:18:08.252Z,28
2016-11-21T17:19:22.860Z,28
2016-11-21T17:20:36.679Z,28
2016-11-21T17:21:53.141Z,28
2016-11-21T17:23:09.284Z,28
2016-11-21T17:24:24.601Z,28
2016-11-21T17:25:41.304Z,28
2016-11-21T17:26:56.871Z,28
2016-11-21T17:28:13.176Z,28
2016-11-21T17:29:29.163Z,28
2016-11-21T17:30:43.896Z,24
2016-11-21T17:31:58.847Z,28
2016-11-21T17:33:15.159Z,28
2016-11-21T17:34:32.324Z,28
2016-11-21T17:35:49.059Z,24
2016-11-21T17:37:05.873Z,28
2016-11-21T17:38:22.829Z,28
2016-11-21T17:39:38.946Z,28